OCN9ZF EDDF-LGIR
Flight info
| Callsign | OCN9ZF |
|---|---|
| Flight time | 2h 36m |
| Altitude | 37000 |
| Route | CINDY8S/18 CINDY Z74 LAMPU DCT NOMBO Y161 MAH DCT VAVOR DCT RADIZ DCT PINDO DCT KEA UL607 GIVIS T514 XAVIS |
| Aircraft | A320/M-SDE2E3FGIJ1LORWXYZ/HB1 |
Departure
| Time | 2026-05-05 14:09 |
|---|---|
| Airport | Frankfurt Main Airport (EDDF) |
Arrival
| Time | 2026-05-05 16:46 |
|---|---|
| Airport | Heraklion International Nikos Kazantzakis Airport (LGIR) |
| Time | Latitude | Longitude | Altitude | Speed | Heading |
|---|---|---|---|---|---|
| 2026-05-05 13:57 | 50.04654 | 8.56935 | 356 ft | 0 kts | 204° |
| 2026-05-05 13:59 | 50.04650 | 8.56932 | 362 ft | 5 kts | 204° |
| 2026-05-05 13:59 | 50.04557 | 8.56893 | 359 ft | 14 kts | 194° |
| 2026-05-05 14:00 | 50.04419 | 8.56690 | 358 ft | 17 kts | 249° |
| 2026-05-05 14:00 | 50.04375 | 8.56508 | 356 ft | 18 kts | 250° |
| 2026-05-05 14:00 | 50.04330 | 8.56320 | 358 ft | 19 kts | 250° |
| 2026-05-05 14:00 | 50.04285 | 8.56130 | 355 ft | 19 kts | 249° |
| 2026-05-05 14:01 | 50.04236 | 8.55932 | 358 ft | 20 kts | 249° |
| 2026-05-05 14:01 | 50.04188 | 8.55728 | 357 ft | 19 kts | 249° |
| 2026-05-05 14:01 | 50.04156 | 8.55595 | 359 ft | 7 kts | 250° |
| 2026-05-05 14:01 | 50.04155 | 8.55590 | 356 ft | 0 kts | 250° |
| 2026-05-05 14:02 | 50.04140 | 8.55527 | 359 ft | 17 kts | 250° |
| 2026-05-05 14:02 | 50.04126 | 8.55466 | 351 ft | 0 kts | 250° |
| 2026-05-05 14:03 | 50.04113 | 8.55411 | 355 ft | 16 kts | 249° |
| 2026-05-05 14:03 | 50.04072 | 8.55241 | 356 ft | 17 kts | 249° |
| 2026-05-05 14:03 | 50.04026 | 8.55050 | 354 ft | 19 kts | 250° |
| 2026-05-05 14:03 | 50.03979 | 8.54853 | 359 ft | 20 kts | 250° |
| 2026-05-05 14:04 | 50.03929 | 8.54643 | 353 ft | 21 kts | 249° |
| 2026-05-05 14:04 | 50.03876 | 8.54423 | 354 ft | 22 kts | 249° |
| 2026-05-05 14:04 | 50.03798 | 8.54217 | 356 ft | 22 kts | 249° |
| 2026-05-05 14:04 | 50.03745 | 8.53995 | 352 ft | 22 kts | 250° |
| 2026-05-05 14:05 | 50.03690 | 8.53764 | 343 ft | 23 kts | 249° |
| 2026-05-05 14:05 | 50.03633 | 8.53538 | 341 ft | 23 kts | 248° |
| 2026-05-05 14:05 | 50.03577 | 8.53305 | 338 ft | 23 kts | 249° |
| 2026-05-05 14:05 | 50.03520 | 8.53069 | 333 ft | 23 kts | 249° |
| 2026-05-05 14:06 | 50.03469 | 8.52864 | 333 ft | 20 kts | 245° |
| 2026-05-05 14:06 | 50.03424 | 8.52693 | 332 ft | 15 kts | 249° |
| 2026-05-05 14:06 | 50.03354 | 8.52593 | 334 ft | 14 kts | 184° |
| 2026-05-05 14:06 | 50.03335 | 8.52594 | 333 ft | 0 kts | 179° |
| 2026-05-05 14:08 | 50.03331 | 8.52594 | 331 ft | 4 kts | 179° |
| 2026-05-05 14:08 | 50.03082 | 8.52596 | 335 ft | 71 kts | 180° |
| 2026-05-05 14:09 | 50.02382 | 8.52605 | 335 ft | 128 kts | 179° |
| 2026-05-05 14:09 | 50.01337 | 8.52611 | 337 ft | 170 kts | 181° |
| 2026-05-05 14:09 | 50.00137 | 8.52595 | 902 ft | 173 kts | 183° |
| 2026-05-05 14:09 | 49.98869 | 8.52593 | 1404 ft | 190 kts | 177° |
| 2026-05-05 14:10 | 49.97531 | 8.53127 | 1877 ft | 211 kts | 155° |
| 2026-05-05 14:10 | 49.96299 | 8.54587 | 2356 ft | 236 kts | 133° |
| 2026-05-05 14:10 | 49.95328 | 8.56673 | 3109 ft | 239 kts | 124° |
| 2026-05-05 14:10 | 49.94440 | 8.58892 | 3734 ft | 253 kts | 121° |
| 2026-05-05 14:11 | 49.93518 | 8.61346 | 4224 ft | 271 kts | 120° |
| 2026-05-05 14:11 | 49.92580 | 8.63927 | 5017 ft | 276 kts | 120° |
| 2026-05-05 14:11 | 49.91642 | 8.66549 | 5887 ft | 279 kts | 120° |
| 2026-05-05 14:11 | 49.90710 | 8.69161 | 6734 ft | 282 kts | 120° |
| 2026-05-05 14:12 | 49.89744 | 8.71859 | 7563 ft | 284 kts | 120° |
| 2026-05-05 14:12 | 49.88788 | 8.74511 | 8359 ft | 287 kts | 120° |
| 2026-05-05 14:12 | 49.87810 | 8.77226 | 9149 ft | 289 kts | 120° |
| 2026-05-05 14:12 | 49.86824 | 8.79958 | 9921 ft | 292 kts | 120° |
| 2026-05-05 14:13 | 49.85804 | 8.82773 | 10296 ft | 310 kts | 120° |
| 2026-05-05 14:13 | 49.84706 | 8.85801 | 10514 ft | 333 kts | 120° |
| 2026-05-05 14:13 | 49.83546 | 8.89005 | 10962 ft | 345 kts | 120° |
| 2026-05-05 14:13 | 49.82358 | 8.92269 | 11625 ft | 349 kts | 121° |
| 2026-05-05 14:14 | 49.81161 | 8.95558 | 12329 ft | 352 kts | 121° |
| 2026-05-05 14:14 | 49.79953 | 8.98864 | 13014 ft | 354 kts | 121° |
| 2026-05-05 14:14 | 49.78733 | 9.02200 | 13667 ft | 358 kts | 121° |
| 2026-05-05 14:14 | 49.77517 | 9.05527 | 14294 ft | 361 kts | 121° |
| 2026-05-05 14:15 | 49.76362 | 9.09007 | 14909 ft | 366 kts | 114° |
| 2026-05-05 14:15 | 49.75608 | 9.12809 | 15488 ft | 372 kts | 106° |
| 2026-05-05 14:15 | 49.74870 | 9.16653 | 16053 ft | 373 kts | 115° |
| 2026-05-05 14:15 | 49.73684 | 9.20216 | 16611 ft | 373 kts | 126° |
| 2026-05-05 14:16 | 49.72090 | 9.23362 | 17172 ft | 373 kts | 134° |
| 2026-05-05 14:16 | 49.70364 | 9.26390 | 17731 ft | 376 kts | 134° |
| 2026-05-05 14:16 | 49.68634 | 9.29432 | 18247 ft | 379 kts | 134° |
| 2026-05-05 14:16 | 49.66887 | 9.32507 | 18739 ft | 382 kts | 134° |
| 2026-05-05 14:17 | 49.65133 | 9.35607 | 19230 ft | 385 kts | 134° |
| 2026-05-05 14:17 | 49.63364 | 9.38727 | 19702 ft | 388 kts | 135° |
| 2026-05-05 14:17 | 49.61416 | 9.41593 | 20156 ft | 388 kts | 144° |
| 2026-05-05 14:17 | 49.59206 | 9.43866 | 20609 ft | 388 kts | 152° |
| 2026-05-05 14:18 | 49.56875 | 9.45989 | 21053 ft | 390 kts | 152° |
| 2026-05-05 14:18 | 49.54527 | 9.48126 | 21484 ft | 393 kts | 152° |
| 2026-05-05 14:18 | 49.52163 | 9.50280 | 21901 ft | 396 kts | 151° |
| 2026-05-05 14:18 | 49.49784 | 9.52450 | 22313 ft | 399 kts | 151° |
| 2026-05-05 14:19 | 49.47391 | 9.54635 | 22721 ft | 402 kts | 151° |
| 2026-05-05 14:19 | 49.44975 | 9.56838 | 23115 ft | 404 kts | 152° |
| 2026-05-05 14:19 | 49.42548 | 9.59046 | 23497 ft | 407 kts | 152° |
| 2026-05-05 14:19 | 49.40099 | 9.61270 | 23867 ft | 409 kts | 151° |
| 2026-05-05 14:20 | 49.37640 | 9.63499 | 24241 ft | 412 kts | 151° |
| 2026-05-05 14:20 | 49.35176 | 9.65767 | 24592 ft | 415 kts | 148° |
| 2026-05-05 14:20 | 49.32894 | 9.68507 | 24949 ft | 419 kts | 139° |
| 2026-05-05 14:20 | 49.30821 | 9.71685 | 25302 ft | 422 kts | 137° |
| 2026-05-05 14:21 | 49.28744 | 9.74879 | 25652 ft | 424 kts | 137° |
| 2026-05-05 14:21 | 49.26651 | 9.78070 | 26000 ft | 426 kts | 138° |
| 2026-05-05 14:21 | 49.24543 | 9.81267 | 26344 ft | 427 kts | 138° |
| 2026-05-05 14:21 | 49.22430 | 9.84471 | 26672 ft | 429 kts | 138° |
| 2026-05-05 14:22 | 49.20305 | 9.87696 | 26994 ft | 431 kts | 138° |
| 2026-05-05 14:22 | 49.18173 | 9.90933 | 27319 ft | 433 kts | 138° |
| 2026-05-05 14:22 | 49.16033 | 9.94181 | 27628 ft | 435 kts | 138° |
| 2026-05-05 14:22 | 49.13884 | 9.97439 | 27928 ft | 436 kts | 138° |
| 2026-05-05 14:23 | 49.11754 | 10.00664 | 28217 ft | 437 kts | 138° |
| 2026-05-05 14:23 | 49.09588 | 10.03935 | 28460 ft | 439 kts | 138° |
| 2026-05-05 14:23 | 49.07397 | 10.07232 | 28674 ft | 442 kts | 139° |
| 2026-05-05 14:23 | 49.05199 | 10.10523 | 28928 ft | 444 kts | 139° |
| 2026-05-05 14:24 | 49.02957 | 10.13779 | 29178 ft | 445 kts | 140° |
| 2026-05-05 14:24 | 49.00684 | 10.16993 | 29433 ft | 447 kts | 140° |
| 2026-05-05 14:24 | 48.98390 | 10.20188 | 29683 ft | 448 kts | 141° |
| 2026-05-05 14:24 | 48.96078 | 10.23393 | 29925 ft | 450 kts | 141° |
| 2026-05-05 14:25 | 48.93771 | 10.26601 | 30248 ft | 449 kts | 141° |
| 2026-05-05 14:25 | 48.91478 | 10.29812 | 30587 ft | 448 kts | 140° |
| 2026-05-05 14:25 | 48.89195 | 10.33032 | 30918 ft | 447 kts | 140° |
| 2026-05-05 14:25 | 48.86922 | 10.36239 | 31228 ft | 446 kts | 140° |
| 2026-05-05 14:26 | 48.84646 | 10.39448 | 31545 ft | 445 kts | 141° |
| 2026-05-05 14:26 | 48.82385 | 10.42657 | 31852 ft | 445 kts | 140° |
| 2026-05-05 14:26 | 48.80185 | 10.45972 | 32145 ft | 446 kts | 138° |
| 2026-05-05 14:26 | 48.78049 | 10.49380 | 32432 ft | 446 kts | 137° |
| 2026-05-05 14:27 | 48.75978 | 10.52787 | 32694 ft | 445 kts | 136° |
| 2026-05-05 14:27 | 48.73890 | 10.56245 | 32982 ft | 445 kts | 137° |
| 2026-05-05 14:27 | 48.71793 | 10.59689 | 33269 ft | 444 kts | 137° |
| 2026-05-05 14:27 | 48.69684 | 10.63104 | 33538 ft | 443 kts | 137° |
| 2026-05-05 14:28 | 48.67564 | 10.66495 | 33789 ft | 443 kts | 138° |
| 2026-05-05 14:28 | 48.65438 | 10.69864 | 34048 ft | 443 kts | 139° |
| 2026-05-05 14:28 | 48.63306 | 10.73223 | 34310 ft | 442 kts | 139° |
| 2026-05-05 14:28 | 48.61177 | 10.76574 | 34563 ft | 442 kts | 138° |
| 2026-05-05 14:29 | 48.59048 | 10.79928 | 34761 ft | 443 kts | 138° |
| 2026-05-05 14:29 | 48.56947 | 10.83259 | 34817 ft | 443 kts | 138° |
| 2026-05-05 14:29 | 48.52718 | 10.90032 | 34832 ft | 443 kts | 137° |
| 2026-05-05 14:30 | 48.48492 | 10.96809 | 34832 ft | 444 kts | 137° |
| 2026-05-05 14:30 | 48.44216 | 11.03529 | 34831 ft | 444 kts | 138° |
| 2026-05-05 14:31 | 48.39916 | 11.10201 | 34834 ft | 443 kts | 138° |
| 2026-05-05 14:31 | 48.35604 | 11.16854 | 34837 ft | 443 kts | 139° |
| 2026-05-05 14:32 | 48.31305 | 11.23499 | 34824 ft | 444 kts | 138° |
| 2026-05-05 14:32 | 48.27040 | 11.30230 | 34809 ft | 448 kts | 133° |
| 2026-05-05 14:33 | 48.23672 | 11.38109 | 34811 ft | 454 kts | 123° |
| 2026-05-05 14:33 | 48.20519 | 11.46326 | 34801 ft | 455 kts | 124° |
| 2026-05-05 14:34 | 48.17338 | 11.54520 | 34806 ft | 455 kts | 124° |
| 2026-05-05 14:34 | 48.14146 | 11.62715 | 34796 ft | 456 kts | 123° |
| 2026-05-05 14:35 | 48.10945 | 11.70921 | 34799 ft | 456 kts | 124° |
| 2026-05-05 14:35 | 48.08277 | 11.77733 | 34790 ft | 456 kts | 123° |
| 2026-05-05 14:36 | 48.05065 | 11.85933 | 34789 ft | 458 kts | 124° |
| 2026-05-05 14:36 | 48.01841 | 11.94155 | 34790 ft | 458 kts | 123° |
| 2026-05-05 14:37 | 47.98609 | 12.02360 | 34792 ft | 458 kts | 124° |
| 2026-05-05 14:37 | 47.95368 | 12.10536 | 34787 ft | 458 kts | 124° |
| 2026-05-05 14:38 | 47.91455 | 12.17879 | 34782 ft | 449 kts | 141° |
| 2026-05-05 14:38 | 47.86695 | 12.23874 | 34776 ft | 448 kts | 143° |
| 2026-05-05 14:39 | 47.81929 | 12.29843 | 34776 ft | 448 kts | 143° |
| 2026-05-05 14:39 | 47.77184 | 12.35775 | 34778 ft | 448 kts | 143° |
| 2026-05-05 14:40 | 47.72406 | 12.41728 | 34782 ft | 448 kts | 143° |
| 2026-05-05 14:40 | 47.67614 | 12.47681 | 34786 ft | 449 kts | 143° |
| 2026-05-05 14:41 | 47.62823 | 12.53624 | 34784 ft | 449 kts | 143° |
| 2026-05-05 14:41 | 47.58151 | 12.59808 | 34786 ft | 451 kts | 140° |
| 2026-05-05 14:42 | 47.53627 | 12.66255 | 34787 ft | 451 kts | 139° |
| 2026-05-05 14:42 | 47.49099 | 12.72691 | 34793 ft | 451 kts | 139° |
| 2026-05-05 14:43 | 47.44529 | 12.79054 | 34786 ft | 452 kts | 140° |
| 2026-05-05 14:43 | 47.39962 | 12.85338 | 34799 ft | 452 kts | 140° |
| 2026-05-05 14:44 | 47.35355 | 12.91657 | 34808 ft | 452 kts | 140° |
| 2026-05-05 14:44 | 47.30752 | 12.97963 | 34812 ft | 452 kts | 140° |
| 2026-05-05 14:45 | 47.26144 | 13.04272 | 34835 ft | 452 kts | 140° |
| 2026-05-05 14:45 | 47.21547 | 13.10562 | 34838 ft | 451 kts | 140° |
| 2026-05-05 14:46 | 47.16946 | 13.16843 | 34844 ft | 451 kts | 140° |
| 2026-05-05 14:46 | 47.12344 | 13.23113 | 34853 ft | 451 kts | 140° |
| 2026-05-05 14:47 | 47.07731 | 13.29368 | 34861 ft | 451 kts | 140° |
| 2026-05-05 14:47 | 47.03118 | 13.35601 | 34886 ft | 450 kts | 140° |
| 2026-05-05 14:48 | 46.98495 | 13.41830 | 34894 ft | 451 kts | 140° |
| 2026-05-05 14:48 | 46.93905 | 13.48015 | 34895 ft | 450 kts | 140° |
| 2026-05-05 14:49 | 46.89296 | 13.54217 | 34899 ft | 450 kts | 140° |
| 2026-05-05 14:49 | 46.84680 | 13.60399 | 34902 ft | 450 kts | 140° |
| 2026-05-05 14:50 | 46.80062 | 13.66570 | 34906 ft | 449 kts | 140° |
| 2026-05-05 14:50 | 46.75449 | 13.72719 | 34910 ft | 449 kts | 140° |
| 2026-05-05 14:51 | 46.70828 | 13.78880 | 34916 ft | 449 kts | 140° |
| 2026-05-05 14:51 | 46.66234 | 13.84978 | 34924 ft | 449 kts | 140° |
| 2026-05-05 14:52 | 46.61607 | 13.91092 | 34935 ft | 449 kts | 140° |
| 2026-05-05 14:52 | 46.56988 | 13.97203 | 34950 ft | 449 kts | 140° |
| 2026-05-05 14:53 | 46.52365 | 14.03307 | 34957 ft | 449 kts | 140° |
| 2026-05-05 14:53 | 46.47737 | 14.09375 | 34963 ft | 448 kts | 140° |
| 2026-05-05 14:54 | 46.43107 | 14.15439 | 34971 ft | 448 kts | 140° |
| 2026-05-05 14:54 | 46.38476 | 14.21492 | 34973 ft | 448 kts | 140° |
| 2026-05-05 14:55 | 46.33850 | 14.27540 | 34984 ft | 447 kts | 140° |
| 2026-05-05 14:55 | 46.29262 | 14.33522 | 35004 ft | 447 kts | 140° |
| 2026-05-05 14:56 | 46.24638 | 14.39531 | 35008 ft | 447 kts | 140° |
| 2026-05-05 14:56 | 46.20007 | 14.45532 | 35005 ft | 447 kts | 140° |
| 2026-05-05 14:57 | 46.15362 | 14.51528 | 35014 ft | 447 kts | 140° |
| 2026-05-05 14:57 | 46.10720 | 14.57507 | 35014 ft | 447 kts | 140° |
| 2026-05-05 14:58 | 46.06110 | 14.63447 | 35009 ft | 448 kts | 140° |
| 2026-05-05 14:58 | 46.01457 | 14.69425 | 35011 ft | 449 kts | 140° |
| 2026-05-05 14:59 | 45.96787 | 14.75392 | 35007 ft | 449 kts | 140° |
| 2026-05-05 14:59 | 45.92114 | 14.81356 | 35003 ft | 449 kts | 140° |
| 2026-05-05 15:00 | 45.88225 | 14.86325 | 34997 ft | 450 kts | 141° |
| 2026-05-05 15:00 | 45.82742 | 14.93319 | 34987 ft | 451 kts | 141° |
| 2026-05-05 15:01 | 45.78033 | 14.99282 | 34988 ft | 452 kts | 141° |
| 2026-05-05 15:01 | 45.73315 | 15.05241 | 34994 ft | 452 kts | 141° |
| 2026-05-05 15:02 | 45.68616 | 15.11174 | 34993 ft | 453 kts | 141° |
| 2026-05-05 15:02 | 45.63885 | 15.17135 | 34986 ft | 453 kts | 141° |
| 2026-05-05 15:03 | 45.59144 | 15.23094 | 34999 ft | 454 kts | 141° |
| 2026-05-05 15:03 | 45.54424 | 15.29009 | 34997 ft | 454 kts | 141° |
| 2026-05-05 15:04 | 45.49675 | 15.34959 | 34998 ft | 454 kts | 141° |
| 2026-05-05 15:04 | 45.44916 | 15.40907 | 35004 ft | 455 kts | 141° |
| 2026-05-05 15:05 | 45.37766 | 15.49810 | 35001 ft | 455 kts | 141° |
| 2026-05-05 15:06 | 45.32983 | 15.55730 | 35000 ft | 455 kts | 141° |
| 2026-05-05 15:06 | 45.28193 | 15.61650 | 35005 ft | 456 kts | 141° |
| 2026-05-05 15:07 | 45.23411 | 15.67562 | 35005 ft | 456 kts | 141° |
| 2026-05-05 15:07 | 45.18647 | 15.73431 | 35002 ft | 456 kts | 142° |
| 2026-05-05 15:08 | 45.13852 | 15.79322 | 35002 ft | 456 kts | 141° |
| 2026-05-05 15:08 | 45.09052 | 15.85223 | 35013 ft | 457 kts | 142° |
| 2026-05-05 15:09 | 45.04250 | 15.91099 | 35012 ft | 457 kts | 142° |
| 2026-05-05 15:09 | 44.99441 | 15.96969 | 35012 ft | 457 kts | 142° |
| 2026-05-05 15:10 | 44.94623 | 16.02835 | 35013 ft | 457 kts | 142° |
| 2026-05-05 15:10 | 44.89798 | 16.08691 | 35012 ft | 457 kts | 142° |
| 2026-05-05 15:11 | 44.84971 | 16.14544 | 35012 ft | 457 kts | 142° |
| 2026-05-05 15:11 | 44.80147 | 16.20385 | 35016 ft | 458 kts | 142° |
| 2026-05-05 15:12 | 44.75301 | 16.26233 | 35013 ft | 460 kts | 142° |
| 2026-05-05 15:12 | 44.70440 | 16.32091 | 35005 ft | 461 kts | 142° |
| 2026-05-05 15:13 | 44.65591 | 16.37923 | 35002 ft | 462 kts | 142° |
| 2026-05-05 15:13 | 44.60697 | 16.43789 | 34999 ft | 463 kts | 142° |
| 2026-05-05 15:14 | 44.55784 | 16.49657 | 35004 ft | 463 kts | 142° |
| 2026-05-05 15:14 | 44.50875 | 16.55511 | 35007 ft | 464 kts | 142° |
| 2026-05-05 15:15 | 44.45955 | 16.61360 | 35011 ft | 464 kts | 142° |
| 2026-05-05 15:15 | 44.41029 | 16.67216 | 35016 ft | 465 kts | 142° |
| 2026-05-05 15:16 | 44.36101 | 16.73059 | 35017 ft | 465 kts | 142° |
| 2026-05-05 15:16 | 44.31167 | 16.78891 | 35025 ft | 464 kts | 142° |
| 2026-05-05 15:17 | 44.26261 | 16.84674 | 35035 ft | 464 kts | 142° |
| 2026-05-05 15:17 | 44.21321 | 16.90483 | 35044 ft | 464 kts | 143° |
| 2026-05-05 15:18 | 44.16384 | 16.96284 | 35051 ft | 464 kts | 143° |
| 2026-05-05 15:18 | 44.11450 | 17.02078 | 35058 ft | 463 kts | 143° |
| 2026-05-05 15:19 | 44.06519 | 17.07839 | 35056 ft | 463 kts | 143° |
| 2026-05-05 15:19 | 44.01584 | 17.13582 | 35070 ft | 462 kts | 143° |
| 2026-05-05 15:20 | 43.96650 | 17.19320 | 35063 ft | 463 kts | 143° |
| 2026-05-05 15:20 | 43.91738 | 17.25024 | 35062 ft | 464 kts | 143° |
| 2026-05-05 15:21 | 43.86784 | 17.30769 | 35072 ft | 465 kts | 143° |
| 2026-05-05 15:21 | 43.81819 | 17.36514 | 35077 ft | 465 kts | 143° |
| 2026-05-05 15:22 | 43.76847 | 17.42240 | 35079 ft | 465 kts | 143° |
| 2026-05-05 15:22 | 43.71883 | 17.47958 | 35095 ft | 464 kts | 143° |
| 2026-05-05 15:23 | 43.66912 | 17.53674 | 35097 ft | 464 kts | 143° |
| 2026-05-05 15:23 | 43.61942 | 17.59365 | 35097 ft | 464 kts | 143° |
| 2026-05-05 15:24 | 43.56961 | 17.65052 | 35097 ft | 464 kts | 143° |
| 2026-05-05 15:24 | 43.52822 | 17.69763 | 35099 ft | 464 kts | 143° |
| 2026-05-05 15:25 | 43.47850 | 17.75419 | 35100 ft | 463 kts | 143° |
| 2026-05-05 15:25 | 43.42875 | 17.81083 | 35100 ft | 463 kts | 143° |
| 2026-05-05 15:26 | 43.37906 | 17.86723 | 35097 ft | 464 kts | 144° |
| 2026-05-05 15:26 | 43.32930 | 17.92345 | 35085 ft | 463 kts | 144° |
| 2026-05-05 15:27 | 43.27945 | 17.97965 | 35096 ft | 464 kts | 144° |
| 2026-05-05 15:27 | 43.22991 | 18.03550 | 35088 ft | 465 kts | 143° |
| 2026-05-05 15:28 | 43.17986 | 18.09177 | 35079 ft | 466 kts | 144° |
| 2026-05-05 15:28 | 43.12965 | 18.14809 | 35080 ft | 467 kts | 143° |
| 2026-05-05 15:29 | 43.07928 | 18.20444 | 35086 ft | 468 kts | 144° |
| 2026-05-05 15:29 | 43.02873 | 18.26087 | 35078 ft | 470 kts | 144° |
| 2026-05-05 15:30 | 42.97794 | 18.31737 | 35080 ft | 471 kts | 144° |
| 2026-05-05 15:30 | 42.92704 | 18.37391 | 35091 ft | 472 kts | 144° |
| 2026-05-05 15:31 | 42.87599 | 18.43049 | 35094 ft | 474 kts | 144° |
| 2026-05-05 15:31 | 42.82510 | 18.48672 | 35083 ft | 474 kts | 144° |
| 2026-05-05 15:32 | 42.77376 | 18.54342 | 35077 ft | 475 kts | 144° |
| 2026-05-05 15:32 | 42.72235 | 18.60010 | 35094 ft | 475 kts | 144° |
| 2026-05-05 15:33 | 42.67089 | 18.65669 | 35095 ft | 476 kts | 144° |
| 2026-05-05 15:33 | 42.61930 | 18.71329 | 35081 ft | 477 kts | 144° |
| 2026-05-05 15:34 | 42.56761 | 18.76982 | 35088 ft | 478 kts | 144° |
| 2026-05-05 15:34 | 42.51590 | 18.82637 | 35082 ft | 478 kts | 144° |
| 2026-05-05 15:35 | 42.46395 | 18.88295 | 35083 ft | 479 kts | 144° |
| 2026-05-05 15:35 | 42.41191 | 18.93954 | 35082 ft | 480 kts | 144° |
| 2026-05-05 15:36 | 42.35971 | 18.99618 | 35078 ft | 481 kts | 144° |
| 2026-05-05 15:36 | 42.30766 | 19.05245 | 35079 ft | 482 kts | 144° |
| 2026-05-05 15:37 | 42.25523 | 19.10903 | 35074 ft | 482 kts | 144° |
| 2026-05-05 15:37 | 42.20242 | 19.16590 | 35077 ft | 482 kts | 144° |
| 2026-05-05 15:38 | 42.15044 | 19.22175 | 35067 ft | 482 kts | 144° |
| 2026-05-05 15:38 | 42.10094 | 19.27485 | 35076 ft | 484 kts | 144° |
| 2026-05-05 15:39 | 42.04821 | 19.33133 | 35063 ft | 485 kts | 144° |
| 2026-05-05 15:39 | 41.99731 | 19.38501 | 35078 ft | 485 kts | 144° |
| 2026-05-05 15:40 | 41.94428 | 19.44150 | 35060 ft | 488 kts | 144° |
| 2026-05-05 15:40 | 41.89114 | 19.49871 | 35059 ft | 490 kts | 144° |
| 2026-05-05 15:41 | 41.83802 | 19.55547 | 35069 ft | 492 kts | 144° |
| 2026-05-05 15:41 | 41.78428 | 19.61231 | 35070 ft | 493 kts | 144° |
| 2026-05-05 15:42 | 41.73034 | 19.66906 | 35080 ft | 493 kts | 144° |
| 2026-05-05 15:42 | 41.67634 | 19.72592 | 35086 ft | 494 kts | 144° |
| 2026-05-05 15:43 | 41.62239 | 19.78281 | 35082 ft | 493 kts | 144° |
| 2026-05-05 15:43 | 41.56836 | 19.83950 | 35096 ft | 494 kts | 144° |
| 2026-05-05 15:44 | 41.51427 | 19.89620 | 35093 ft | 494 kts | 144° |
| 2026-05-05 15:44 | 41.46012 | 19.95287 | 35097 ft | 494 kts | 144° |
| 2026-05-05 15:45 | 41.40593 | 20.00937 | 35101 ft | 495 kts | 144° |
| 2026-05-05 15:45 | 41.35167 | 20.06581 | 35083 ft | 495 kts | 144° |
| 2026-05-05 15:46 | 41.29734 | 20.12221 | 35079 ft | 495 kts | 144° |
| 2026-05-05 15:46 | 41.24324 | 20.17836 | 35081 ft | 497 kts | 144° |
| 2026-05-05 15:47 | 41.18869 | 20.23477 | 35086 ft | 497 kts | 144° |
| 2026-05-05 15:47 | 41.13396 | 20.29114 | 35081 ft | 498 kts | 144° |
| 2026-05-05 15:48 | 41.07921 | 20.34758 | 35098 ft | 498 kts | 144° |
| 2026-05-05 15:48 | 41.02490 | 20.40340 | 35091 ft | 499 kts | 144° |
| 2026-05-05 15:49 | 40.96998 | 20.45968 | 35087 ft | 499 kts | 144° |
| 2026-05-05 15:49 | 40.91499 | 20.51590 | 35081 ft | 500 kts | 144° |
| 2026-05-05 15:50 | 40.85993 | 20.57218 | 35073 ft | 500 kts | 144° |
| 2026-05-05 15:50 | 40.80511 | 20.62811 | 35073 ft | 501 kts | 144° |
| 2026-05-05 15:51 | 40.74981 | 20.68423 | 35070 ft | 501 kts | 144° |
| 2026-05-05 15:51 | 40.69440 | 20.74019 | 35075 ft | 502 kts | 144° |
| 2026-05-05 15:52 | 40.63906 | 20.79620 | 35077 ft | 502 kts | 144° |
| 2026-05-05 15:52 | 40.58368 | 20.85226 | 35080 ft | 503 kts | 143° |
| 2026-05-05 15:53 | 40.52817 | 20.90828 | 35071 ft | 503 kts | 144° |
| 2026-05-05 15:53 | 40.47312 | 20.96516 | 35062 ft | 504 kts | 138° |
| 2026-05-05 15:54 | 40.42148 | 21.02759 | 35060 ft | 504 kts | 137° |
| 2026-05-05 15:54 | 40.36985 | 21.09006 | 35069 ft | 505 kts | 137° |
| 2026-05-05 15:55 | 40.31841 | 21.15211 | 35066 ft | 506 kts | 137° |
| 2026-05-05 15:55 | 40.26616 | 21.21486 | 35069 ft | 507 kts | 137° |
| 2026-05-05 15:56 | 40.21442 | 21.27683 | 35074 ft | 507 kts | 137° |
| 2026-05-05 15:56 | 40.16229 | 21.33916 | 35074 ft | 508 kts | 137° |
| 2026-05-05 15:57 | 40.11008 | 21.40171 | 35069 ft | 509 kts | 137° |
| 2026-05-05 15:57 | 40.05772 | 21.46427 | 35071 ft | 510 kts | 137° |
| 2026-05-05 15:58 | 40.00528 | 21.52673 | 35066 ft | 510 kts | 137° |
| 2026-05-05 15:58 | 39.95275 | 21.58899 | 35067 ft | 511 kts | 137° |
| 2026-05-05 15:59 | 39.90000 | 21.65146 | 35072 ft | 512 kts | 137° |
| 2026-05-05 15:59 | 39.84720 | 21.71390 | 35070 ft | 513 kts | 137° |
| 2026-05-05 16:00 | 39.79468 | 21.77581 | 35064 ft | 513 kts | 137° |
| 2026-05-05 16:00 | 39.74618 | 21.83282 | 35065 ft | 513 kts | 137° |
| 2026-05-05 16:01 | 39.69314 | 21.89506 | 35073 ft | 514 kts | 137° |
| 2026-05-05 16:01 | 39.64009 | 21.95722 | 35062 ft | 514 kts | 137° |
| 2026-05-05 16:02 | 39.58702 | 22.01939 | 35066 ft | 514 kts | 137° |
| 2026-05-05 16:02 | 39.53384 | 22.08143 | 35066 ft | 514 kts | 137° |
| 2026-05-05 16:03 | 39.48063 | 22.14336 | 35063 ft | 513 kts | 137° |
| 2026-05-05 16:03 | 39.42795 | 22.20454 | 35063 ft | 513 kts | 137° |
| 2026-05-05 16:04 | 39.37475 | 22.26623 | 35064 ft | 512 kts | 137° |
| 2026-05-05 16:04 | 39.32167 | 22.32770 | 35062 ft | 512 kts | 137° |
| 2026-05-05 16:05 | 39.26860 | 22.38904 | 35060 ft | 511 kts | 137° |
| 2026-05-05 16:05 | 39.21559 | 22.45004 | 35054 ft | 510 kts | 138° |
| 2026-05-05 16:06 | 39.16262 | 22.51085 | 35053 ft | 510 kts | 138° |
| 2026-05-05 16:06 | 39.10966 | 22.57154 | 35059 ft | 509 kts | 138° |
| 2026-05-05 16:07 | 39.05680 | 22.63205 | 35054 ft | 508 kts | 138° |
| 2026-05-05 16:07 | 39.00399 | 22.69247 | 35053 ft | 508 kts | 138° |
| 2026-05-05 16:08 | 38.95119 | 22.75274 | 35049 ft | 507 kts | 138° |
| 2026-05-05 16:08 | 38.89868 | 22.81241 | 35045 ft | 507 kts | 138° |
| 2026-05-05 16:09 | 38.84587 | 22.87238 | 35046 ft | 507 kts | 138° |
| 2026-05-05 16:09 | 38.80164 | 22.92252 | 35048 ft | 506 kts | 138° |
| 2026-05-05 16:10 | 38.74880 | 22.98231 | 35048 ft | 505 kts | 138° |
| 2026-05-05 16:10 | 38.69638 | 23.04151 | 35045 ft | 505 kts | 138° |
| 2026-05-05 16:11 | 38.64370 | 23.10082 | 35042 ft | 504 kts | 138° |
| 2026-05-05 16:12 | 38.54006 | 23.21721 | 35028 ft | 504 kts | 138° |
| 2026-05-05 16:13 | 38.40786 | 23.36497 | 35026 ft | 505 kts | 139° |
| 2026-05-05 16:13 | 38.35495 | 23.42392 | 35026 ft | 505 kts | 139° |
| 2026-05-05 16:14 | 38.24930 | 23.54123 | 35014 ft | 505 kts | 139° |
| 2026-05-05 16:15 | 38.14317 | 23.65877 | 35015 ft | 506 kts | 139° |
| 2026-05-05 16:16 | 38.03680 | 23.77597 | 35020 ft | 507 kts | 139° |
| 2026-05-05 16:17 | 37.95682 | 23.86363 | 35042 ft | 507 kts | 139° |
| 2026-05-05 16:18 | 37.87681 | 23.95131 | 35057 ft | 507 kts | 139° |
| 2026-05-05 16:19 | 37.79675 | 24.03882 | 35065 ft | 508 kts | 139° |
| 2026-05-05 16:19 | 37.71638 | 24.12611 | 35080 ft | 508 kts | 139° |
| 2026-05-05 16:20 | 37.60949 | 24.24197 | 35078 ft | 507 kts | 139° |
| 2026-05-05 16:22 | 37.46590 | 24.36995 | 35072 ft | 506 kts | 150° |
| 2026-05-05 16:23 | 37.34266 | 24.45526 | 35068 ft | 505 kts | 153° |
| 2026-05-05 16:23 | 37.25019 | 24.51875 | 35086 ft | 505 kts | 152° |
| 2026-05-05 16:24 | 37.18618 | 24.55412 | 35080 ft | 502 kts | 161° |
| 2026-05-05 16:25 | 37.08872 | 24.60233 | 35082 ft | 502 kts | 161° |
| 2026-05-05 16:25 | 36.99166 | 24.64979 | 35079 ft | 501 kts | 161° |
| 2026-05-05 16:26 | 36.92666 | 24.68160 | 34912 ft | 501 kts | 161° |
| 2026-05-05 16:26 | 36.86167 | 24.71356 | 33842 ft | 506 kts | 161° |
| 2026-05-05 16:27 | 36.82867 | 24.72974 | 32710 ft | 507 kts | 161° |
| 2026-05-05 16:27 | 36.79600 | 24.74573 | 31633 ft | 502 kts | 161° |
| 2026-05-05 16:27 | 36.76359 | 24.76156 | 30883 ft | 496 kts | 161° |
| 2026-05-05 16:27 | 36.73195 | 24.77698 | 30236 ft | 493 kts | 161° |
| 2026-05-05 16:28 | 36.69955 | 24.79273 | 29533 ft | 493 kts | 160° |
| 2026-05-05 16:28 | 36.66769 | 24.80819 | 28851 ft | 491 kts | 160° |
| 2026-05-05 16:28 | 36.63594 | 24.82359 | 28169 ft | 488 kts | 160° |
| 2026-05-05 16:28 | 36.60476 | 24.83870 | 27502 ft | 486 kts | 160° |
| 2026-05-05 16:29 | 36.57332 | 24.85397 | 26835 ft | 483 kts | 160° |
| 2026-05-05 16:29 | 36.54206 | 24.86915 | 26178 ft | 480 kts | 160° |
| 2026-05-05 16:29 | 36.51065 | 24.88442 | 25512 ft | 477 kts | 160° |
| 2026-05-05 16:29 | 36.48024 | 24.89917 | 24889 ft | 473 kts | 160° |
| 2026-05-05 16:30 | 36.44974 | 24.91394 | 24270 ft | 468 kts | 160° |
| 2026-05-05 16:30 | 36.41958 | 24.92850 | 23680 ft | 463 kts | 160° |
| 2026-05-05 16:30 | 36.38968 | 24.94291 | 23112 ft | 458 kts | 160° |
| 2026-05-05 16:30 | 36.36018 | 24.95714 | 22567 ft | 452 kts | 160° |
| 2026-05-05 16:31 | 36.33100 | 24.97121 | 22024 ft | 447 kts | 160° |
| 2026-05-05 16:31 | 36.30216 | 24.98509 | 21480 ft | 442 kts | 160° |
| 2026-05-05 16:31 | 36.27361 | 24.99884 | 20947 ft | 438 kts | 160° |
| 2026-05-05 16:31 | 36.24528 | 25.01250 | 20405 ft | 434 kts | 160° |
| 2026-05-05 16:32 | 36.21729 | 25.02598 | 19851 ft | 430 kts | 160° |
| 2026-05-05 16:32 | 36.18951 | 25.03934 | 19298 ft | 427 kts | 160° |
| 2026-05-05 16:32 | 36.16190 | 25.05260 | 18738 ft | 424 kts | 160° |
| 2026-05-05 16:32 | 36.13452 | 25.06574 | 18173 ft | 421 kts | 160° |
| 2026-05-05 16:33 | 36.10728 | 25.07878 | 17616 ft | 418 kts | 160° |
| 2026-05-05 16:33 | 36.08056 | 25.09153 | 17100 ft | 415 kts | 160° |
| 2026-05-05 16:33 | 36.05380 | 25.10430 | 16544 ft | 410 kts | 160° |
| 2026-05-05 16:33 | 36.02769 | 25.11677 | 15981 ft | 394 kts | 160° |
| 2026-05-05 16:34 | 36.00255 | 25.12881 | 15473 ft | 380 kts | 160° |
| 2026-05-05 16:34 | 35.97839 | 25.14037 | 14981 ft | 366 kts | 160° |
| 2026-05-05 16:34 | 35.95499 | 25.15155 | 14494 ft | 355 kts | 160° |
| 2026-05-05 16:34 | 35.93223 | 25.16240 | 14037 ft | 348 kts | 160° |
| 2026-05-05 16:35 | 35.90968 | 25.17308 | 13560 ft | 346 kts | 160° |
| 2026-05-05 16:35 | 35.88697 | 25.18383 | 13071 ft | 349 kts | 160° |
| 2026-05-05 16:35 | 35.86425 | 25.19462 | 12593 ft | 351 kts | 160° |
| 2026-05-05 16:35 | 35.84139 | 25.20547 | 12094 ft | 353 kts | 160° |
| 2026-05-05 16:36 | 35.81874 | 25.21618 | 11598 ft | 354 kts | 160° |
| 2026-05-05 16:36 | 35.79576 | 25.22708 | 11094 ft | 354 kts | 159° |
| 2026-05-05 16:36 | 35.77276 | 25.23803 | 10587 ft | 354 kts | 159° |
| 2026-05-05 16:36 | 35.75008 | 25.24882 | 10405 ft | 343 kts | 159° |
| 2026-05-05 16:37 | 35.72819 | 25.25925 | 10280 ft | 331 kts | 159° |
| 2026-05-05 16:37 | 35.70703 | 25.26933 | 10125 ft | 322 kts | 159° |
| 2026-05-05 16:37 | 35.68628 | 25.27916 | 9887 ft | 317 kts | 159° |
| 2026-05-05 16:37 | 35.66561 | 25.28894 | 9440 ft | 319 kts | 159° |
| 2026-05-05 16:38 | 35.64496 | 25.29870 | 8935 ft | 317 kts | 158° |
| 2026-05-05 16:38 | 35.62453 | 25.30836 | 8335 ft | 312 kts | 158° |
| 2026-05-05 16:38 | 35.60438 | 25.31788 | 7772 ft | 307 kts | 158° |
| 2026-05-05 16:38 | 35.58445 | 25.32730 | 7279 ft | 304 kts | 158° |
| 2026-05-05 16:39 | 35.56483 | 25.33660 | 7101 ft | 301 kts | 158° |
| 2026-05-05 16:39 | 35.54544 | 25.34578 | 6661 ft | 296 kts | 159° |
| 2026-05-05 16:39 | 35.52652 | 25.35469 | 5987 ft | 294 kts | 159° |
| 2026-05-05 16:39 | 35.50752 | 25.36361 | 5353 ft | 291 kts | 159° |
| 2026-05-05 16:40 | 35.48860 | 25.37251 | 4943 ft | 290 kts | 159° |
| 2026-05-05 16:40 | 35.46982 | 25.38132 | 4571 ft | 286 kts | 160° |
| 2026-05-05 16:40 | 35.45069 | 25.38681 | 4287 ft | 277 kts | 177° |
| 2026-05-05 16:40 | 35.43238 | 25.38608 | 4150 ft | 252 kts | 193° |
| 2026-05-05 16:41 | 35.41578 | 25.38183 | 3851 ft | 239 kts | 195° |
| 2026-05-05 16:41 | 35.39968 | 25.37756 | 3428 ft | 235 kts | 195° |
| 2026-05-05 16:41 | 35.38388 | 25.37337 | 3291 ft | 227 kts | 196° |
| 2026-05-05 16:41 | 35.36871 | 25.36934 | 3189 ft | 219 kts | 196° |
| 2026-05-05 16:42 | 35.35414 | 25.36545 | 3106 ft | 208 kts | 197° |
| 2026-05-05 16:42 | 35.34100 | 25.36033 | 3019 ft | 187 kts | 216° |
| 2026-05-05 16:42 | 35.33249 | 25.34987 | 2929 ft | 162 kts | 245° |
| 2026-05-05 16:42 | 35.32921 | 25.33753 | 2696 ft | 148 kts | 269° |
| 2026-05-05 16:43 | 35.32971 | 25.32537 | 2486 ft | 139 kts | 278° |
| 2026-05-05 16:43 | 35.33053 | 25.31378 | 2291 ft | 135 kts | 278° |
| 2026-05-05 16:43 | 35.33135 | 25.30236 | 2106 ft | 134 kts | 278° |
| 2026-05-05 16:43 | 35.33213 | 25.29102 | 1917 ft | 133 kts | 278° |
| 2026-05-05 16:44 | 35.33292 | 25.27974 | 1712 ft | 132 kts | 278° |
| 2026-05-05 16:44 | 35.33370 | 25.26864 | 1515 ft | 132 kts | 278° |
| 2026-05-05 16:44 | 35.33446 | 25.25737 | 1315 ft | 133 kts | 277° |
| 2026-05-05 16:44 | 35.33523 | 25.24610 | 1115 ft | 133 kts | 277° |
| 2026-05-05 16:45 | 35.33602 | 25.23488 | 918 ft | 132 kts | 277° |
| 2026-05-05 16:45 | 35.33675 | 25.22366 | 692 ft | 133 kts | 276° |
| 2026-05-05 16:45 | 35.33757 | 25.21242 | 430 ft | 132 kts | 277° |
| 2026-05-05 16:45 | 35.33830 | 25.20122 | 298 ft | 132 kts | 277° |
| 2026-05-05 16:46 | 35.33909 | 25.18993 | 123 ft | 133 kts | 275° |
| 2026-05-05 16:46 | 35.33984 | 25.17935 | 96 ft | 107 kts | 274° |
| 2026-05-05 16:46 | 35.34020 | 25.17400 | 91 ft | 22 kts | 274° |
| 2026-05-05 16:46 | 35.34029 | 25.17201 | 92 ft | 21 kts | 260° |
| 2026-05-05 16:47 | 35.33990 | 25.17096 | 93 ft | 6 kts | 246° |
| 2026-05-05 16:47 | 35.33987 | 25.17089 | 90 ft | 1 kts | 246° |
| 2026-05-05 16:47 | 35.33972 | 25.17058 | 90 ft | 4 kts | 226° |
| 2026-05-05 16:47 | 35.33939 | 25.17104 | 92 ft | 11 kts | 95° |
| 2026-05-05 16:48 | 35.33933 | 25.17188 | 90 ft | 9 kts | 95° |
| 2026-05-05 16:48 | 35.33928 | 25.17259 | 91 ft | 8 kts | 95° |
| 2026-05-05 16:48 | 35.33923 | 25.17335 | 91 ft | 9 kts | 95° |
| 2026-05-05 16:48 | 35.33918 | 25.17410 | 91 ft | 9 kts | 94° |
| 2026-05-05 16:49 | 35.33913 | 25.17484 | 91 ft | 8 kts | 95° |
| 2026-05-05 16:49 | 35.33909 | 25.17548 | 91 ft | 7 kts | 95° |
| 2026-05-05 16:49 | 35.33879 | 25.17622 | 93 ft | 11 kts | 163° |
| 2026-05-05 16:49 | 35.33851 | 25.17589 | 91 ft | 4 kts | 265° |
| 2026-05-05 16:50 | 35.33860 | 25.17559 | 91 ft | 3 kts | 307° |
| 2026-05-05 16:50 | 35.33869 | 25.17546 | 91 ft | 0 kts | 314° |